createdAt,value
2018-05-23T00:00:05.148Z,4.23
2018-05-23T00:02:33.436Z,3.60
2018-05-23T00:05:01.919Z,3.73
2018-05-23T00:07:30.233Z,3.87
2018-05-23T00:10:01.436Z,3.57
2018-05-23T00:12:29.854Z,4.07
2018-05-23T00:14:58.448Z,4.00
2018-05-23T00:17:27.935Z,3.70
2018-05-23T00:19:56.266Z,4.50
2018-05-23T00:22:24.923Z,3.40
2018-05-23T00:24:54.017Z,4.63
2018-05-23T00:27:22.310Z,3.93
2018-05-23T00:29:52.605Z,4.57
2018-05-23T00:32:20.997Z,4.30
2018-05-23T00:34:50.956Z,4.00
2018-05-23T00:37:20.216Z,5.03
2018-05-23T00:39:49.382Z,4.00
2018-05-23T00:42:18.194Z,3.90
2018-05-23T00:44:47.010Z,4.33
2018-05-23T00:47:16.686Z,4.93
2018-05-23T00:49:44.974Z,5.17
2018-05-23T00:52:14.850Z,4.10
2018-05-23T00:55:01.539Z,4.80
2018-05-23T00:57:32.053Z,4.67
2018-05-23T01:00:01.330Z,4.60
2018-05-23T01:02:29.623Z,4.60
2018-05-23T01:04:58.799Z,4.00
2018-05-23T01:07:28.353Z,5.10
2018-05-23T01:09:57.110Z,4.10
2018-05-23T01:12:25.446Z,4.03
2018-05-23T01:14:53.739Z,3.63
2018-05-23T01:17:22.127Z,3.90
2018-05-23T01:19:51.329Z,3.90
2018-05-23T01:22:19.682Z,4.13
2018-05-23T01:24:47.994Z,5.40
2018-05-23T01:27:16.282Z,4.10
2018-05-23T01:29:46.260Z,5.00
2018-05-23T01:32:15.415Z,4.43
2018-05-23T01:34:46.487Z,3.97
2018-05-23T01:37:15.307Z,4.90
2018-05-23T01:39:44.077Z,4.70
2018-05-23T01:42:13.575Z,4.40
2018-05-23T01:44:42.390Z,3.90
2018-05-23T01:47:10.747Z,4.10
2018-05-23T01:49:39.079Z,4.30
2018-05-23T01:52:07.373Z,4.40
2018-05-23T01:54:36.486Z,5.10
2018-05-23T01:57:05.550Z,4.73
2018-05-23T01:59:33.930Z,4.03
2018-05-23T02:02:02.228Z,4.70
2018-05-23T02:04:31.338Z,5.60
2018-05-23T02:07:00.477Z,4.43
2018-05-23T02:09:28.781Z,5.00
2018-05-23T02:11:57.104Z,4.43
2018-05-23T02:14:25.433Z,4.67
2018-05-23T02:16:53.800Z,4.50
2018-05-23T02:19:22.597Z,5.10
2018-05-23T02:21:52.842Z,4.90
2018-05-23T02:24:21.917Z,5.20
2018-05-23T02:26:50.209Z,4.63
2018-05-23T02:29:18.567Z,4.90
2018-05-23T02:31:46.904Z,6.07
2018-05-23T02:34:15.490Z,5.70
2018-05-23T02:36:44.094Z,5.63
2018-05-23T02:39:13.080Z,4.83
2018-05-23T02:41:41.369Z,5.53
2018-05-23T02:44:09.731Z,5.60
2018-05-23T02:46:38.029Z,4.33
2018-05-23T02:49:06.362Z,6.30
2018-05-23T02:51:35.420Z,4.70
2018-05-23T02:54:03.734Z,5.10
2018-05-23T02:56:32.997Z,5.10
2018-05-23T02:59:01.909Z,5.40
2018-05-23T03:01:30.199Z,5.33
2018-05-23T03:04:00.451Z,5.27
2018-05-23T03:06:28.757Z,5.13
2018-05-23T03:08:57.697Z,6.13
2018-05-23T03:11:27.812Z,4.57
2018-05-23T03:13:56.898Z,5.17
2018-05-23T03:16:25.311Z,5.10
2018-05-23T03:18:53.993Z,5.53
2018-05-23T03:21:22.305Z,5.50
2018-05-23T03:23:50.702Z,5.90
2018-05-23T03:26:20.054Z,5.90
2018-05-23T03:28:50.353Z,4.93
2018-05-23T03:31:18.657Z,4.97
2018-05-23T03:33:48.315Z,6.17
2018-05-23T03:36:18.184Z,5.23
2018-05-23T03:38:48.053Z,5.23
2018-05-23T03:41:18.683Z,6.80
2018-05-23T03:43:47.470Z,5.97
2018-05-23T03:46:16.690Z,6.30
2018-05-23T03:48:45.471Z,5.90
2018-05-23T03:51:16.432Z,5.10
2018-05-23T03:53:46.374Z,6.30
2018-05-23T03:56:14.663Z,5.07
2018-05-23T03:58:43.751Z,6.07
2018-05-23T04:01:30.076Z,5.77
2018-05-23T04:10:11.306Z,5.97
2018-05-23T04:12:40.619Z,5.50
2018-05-23T04:15:09.931Z,5.77
2018-05-23T04:17:38.563Z,6.07
2018-05-23T04:20:07.352Z,5.53
2018-05-23T04:22:35.747Z,5.30
2018-05-23T04:25:04.190Z,5.87
2018-05-23T04:27:32.490Z,6.00
2018-05-23T04:30:01.173Z,6.93
2018-05-23T04:32:30.703Z,5.23
2018-05-23T04:34:59.136Z,5.67
2018-05-23T04:37:28.224Z,5.73
2018-05-23T04:39:58.814Z,5.77
2018-05-23T04:42:27.133Z,4.60
2018-05-23T04:44:57.574Z,5.70
2018-05-23T04:47:26.077Z,5.30
2018-05-23T04:49:56.054Z,6.47
2018-05-23T04:52:25.544Z,5.17
2018-05-23T04:54:53.859Z,4.70
2018-05-23T04:57:22.168Z,5.47
2018-05-23T04:59:51.015Z,4.73
2018-05-23T05:02:20.244Z,5.50
2018-05-23T05:04:49.468Z,5.77
2018-05-23T05:07:18.287Z,5.73
2018-05-23T05:09:47.279Z,5.60
2018-05-23T05:12:15.566Z,4.67
2018-05-23T05:14:44.560Z,5.20
2018-05-23T05:17:12.859Z,5.03
2018-05-23T05:19:41.873Z,5.30
2018-05-23T05:22:11.037Z,5.13
2018-05-23T05:24:40.368Z,5.27
2018-05-23T05:27:09.431Z,4.53
2018-05-23T05:29:38.266Z,4.87
2018-05-23T05:32:08.849Z,4.57
2018-05-23T05:34:37.163Z,4.73
2018-05-23T05:37:06.275Z,4.80
2018-05-23T05:39:35.343Z,4.50
2018-05-23T05:42:04.362Z,4.90
2018-05-23T05:44:34.257Z,4.73
2018-05-23T05:47:03.835Z,4.53
2018-05-23T05:49:33.566Z,4.40
2018-05-23T05:52:02.429Z,4.43
2018-05-23T05:54:32.478Z,4.50
2018-05-23T05:57:01.694Z,3.60
2018-05-23T05:59:31.933Z,3.80
2018-05-23T06:02:01.097Z,3.83
2018-05-23T06:04:30.336Z,3.07
2018-05-23T06:06:59.401Z,3.40
2018-05-23T06:09:28.317Z,2.93
2018-05-23T06:11:57.865Z,2.70
2018-05-23T06:14:26.149Z,3.40
2018-05-23T06:16:54.539Z,3.20
2018-05-23T06:19:22.876Z,3.20
2018-05-23T06:21:51.249Z,2.93
2018-05-23T06:24:19.802Z,2.77
2018-05-23T06:26:49.611Z,2.70
2018-05-23T06:29:19.032Z,3.10
2018-05-23T06:31:48.011Z,3.00
2018-05-23T06:34:17.106Z,3.00
2018-05-23T06:36:46.009Z,3.07
2018-05-23T06:39:15.073Z,2.90
2018-05-23T06:41:43.379Z,3.30
2018-05-23T06:44:12.419Z,2.53
2018-05-23T06:46:40.948Z,2.50
2018-05-23T06:49:10.087Z,2.53
2018-05-23T06:51:39.914Z,2.07
2018-05-23T06:54:08.422Z,2.83
2018-05-23T06:56:36.820Z,2.97
2018-05-23T06:59:05.897Z,2.70
2018-05-23T07:01:34.790Z,2.83
2018-05-23T07:04:04.050Z,2.53
2018-05-23T07:06:32.711Z,2.37
2018-05-23T07:09:02.372Z,1.83
2018-05-23T07:11:30.768Z,2.30
2018-05-23T07:13:59.469Z,2.80
2018-05-23T07:16:27.850Z,2.37
2018-05-23T07:18:56.429Z,2.80
2018-05-23T07:21:25.103Z,3.07
2018-05-23T07:23:53.778Z,2.43
2018-05-23T07:26:22.080Z,2.37
2018-05-23T07:28:50.862Z,2.23
2018-05-23T07:31:19.515Z,2.17
2018-05-23T07:33:48.444Z,2.30
2018-05-23T07:36:17.149Z,2.10
2018-05-23T07:38:45.457Z,2.30
2018-05-23T07:41:14.925Z,2.03
2018-05-23T07:43:43.240Z,1.70
2018-05-23T07:46:13.783Z,2.30
2018-05-23T07:48:42.112Z,1.90
2018-05-23T07:51:11.302Z,1.70
2018-05-23T07:53:40.123Z,1.90
2018-05-23T07:56:08.772Z,2.30
2018-05-23T07:58:38.575Z,2.17
2018-05-23T08:01:07.760Z,1.63
2018-05-23T08:03:36.241Z,2.07
2018-05-23T08:06:04.563Z,1.60
2018-05-23T08:08:33.344Z,1.63
2018-05-23T08:11:01.642Z,2.37
2018-05-23T08:13:30.721Z,1.87
2018-05-23T08:15:59.108Z,2.20
2018-05-23T08:18:27.477Z,2.23
2018-05-23T08:20:56.156Z,2.10
2018-05-23T08:23:25.066Z,1.87
2018-05-23T08:25:53.370Z,1.73
2018-05-23T08:28:22.465Z,1.57
2018-05-23T08:30:50.830Z,1.43
2018-05-23T08:33:20.385Z,1.90
2018-05-23T08:35:48.835Z,1.70
2018-05-23T08:38:17.908Z,2.00
2018-05-23T08:40:46.582Z,2.40
2018-05-23T08:43:14.910Z,2.20
2018-05-23T08:45:44.041Z,1.63
2018-05-23T08:48:12.321Z,1.77
2018-05-23T08:50:41.910Z,1.83
2018-05-23T08:53:10.226Z,1.20
2018-05-23T08:55:38.530Z,1.90
2018-05-23T08:58:06.823Z,1.70
2018-05-23T09:00:35.980Z,1.63
2018-05-23T09:03:04.272Z,1.60
2018-05-23T09:05:34.278Z,1.77
2018-05-23T09:08:03.010Z,1.50
2018-05-23T09:10:32.093Z,2.00
2018-05-23T09:13:00.837Z,1.70
2018-05-23T09:15:29.119Z,1.80
2018-05-23T09:17:57.429Z,2.00
2018-05-23T09:20:25.956Z,1.50
2018-05-23T09:22:54.238Z,1.73
2018-05-23T09:25:22.543Z,1.80
2018-05-23T09:27:51.353Z,1.20
2018-05-23T09:30:20.403Z,1.80
2018-05-23T09:32:49.960Z,1.50
2018-05-23T09:35:18.798Z,1.37
2018-05-23T09:37:47.424Z,1.70
2018-05-23T09:40:15.834Z,1.20
2018-05-23T09:42:45.182Z,2.00
2018-05-23T09:45:13.497Z,1.63
2018-05-23T09:47:42.410Z,1.40
2018-05-23T09:50:11.469Z,1.60
2018-05-23T09:52:40.471Z,1.67
2018-05-23T09:55:08.891Z,1.47
2018-05-23T09:57:37.940Z,1.50
2018-05-23T10:00:06.251Z,1.13
2018-05-23T10:02:35.312Z,1.70
2018-05-23T10:05:03.643Z,1.30
2018-05-23T10:07:33.303Z,1.43
2018-05-23T10:10:01.581Z,1.70
2018-05-23T10:12:30.033Z,1.67
2018-05-23T10:14:58.862Z,1.57
2018-05-23T10:17:27.174Z,1.47
2018-05-23T10:19:56.321Z,1.40
2018-05-23T10:22:25.120Z,1.07
2018-05-23T10:24:54.319Z,1.33
2018-05-23T10:27:23.177Z,1.40
2018-05-23T10:29:51.666Z,1.37
2018-05-23T10:32:19.962Z,1.53
2018-05-23T10:34:48.902Z,1.90
2018-05-23T10:37:18.548Z,1.10
2018-05-23T10:39:47.185Z,1.23
2018-05-23T10:42:15.882Z,1.30
2018-05-23T10:44:44.971Z,1.73
2018-05-23T10:47:13.423Z,1.80
2018-05-23T10:49:41.829Z,1.80
2018-05-23T10:52:10.997Z,1.20
2018-05-23T10:54:39.536Z,1.83
2018-05-23T10:57:08.655Z,1.53
2018-05-23T10:59:36.945Z,1.57
2018-05-23T11:02:07.114Z,1.50
2018-05-23T11:04:37.099Z,1.77
2018-05-23T11:07:06.392Z,1.40
2018-05-23T11:09:35.568Z,1.30
2018-05-23T11:12:04.000Z,2.03
2018-05-23T11:14:33.795Z,1.67
2018-05-23T11:17:03.394Z,1.30
2018-05-23T11:19:32.325Z,1.60
2018-05-23T11:22:01.523Z,1.77
2018-05-23T11:24:31.131Z,1.40
2018-05-23T11:26:59.555Z,2.00
2018-05-23T11:29:27.854Z,1.23
2018-05-23T11:31:56.158Z,1.40
2018-05-23T11:34:25.120Z,1.20
2018-05-23T11:36:55.111Z,1.40
2018-05-23T11:39:23.430Z,1.53
2018-05-23T11:41:51.773Z,1.43
2018-05-23T11:44:20.571Z,1.67
2018-05-23T11:46:49.172Z,1.73
2018-05-23T11:49:17.568Z,1.60
2018-05-23T11:51:46.654Z,1.67
2018-05-23T11:54:16.140Z,1.30
2018-05-23T11:56:45.372Z,1.17
2018-05-23T11:59:13.785Z,1.90
2018-05-23T12:01:43.619Z,1.57
2018-05-23T12:04:11.949Z,1.40
2018-05-23T12:06:41.043Z,1.37
2018-05-23T12:09:09.789Z,1.63
2018-05-23T12:11:38.506Z,1.60
2018-05-23T12:14:07.245Z,1.67
2018-05-23T12:16:36.843Z,1.93
2018-05-23T12:19:05.919Z,1.80
2018-05-23T12:21:35.420Z,1.80
2018-05-23T12:24:05.110Z,2.10
2018-05-23T12:26:33.898Z,2.90
2018-05-23T12:29:02.244Z,1.77
2018-05-23T12:31:31.370Z,2.30
2018-05-23T12:33:59.671Z,2.20
2018-05-23T12:36:29.669Z,2.03
2018-05-23T12:38:57.984Z,1.60
2018-05-23T12:41:26.602Z,1.73
2018-05-23T12:43:55.769Z,2.27
2018-05-23T12:46:24.119Z,1.70
2018-05-23T12:48:52.957Z,2.00
2018-05-23T12:51:21.700Z,1.93
2018-05-23T12:53:51.532Z,2.40
2018-05-23T12:56:19.909Z,2.13
2018-05-23T12:58:48.901Z,2.13
2018-05-23T13:01:17.244Z,1.63
2018-05-23T13:03:45.543Z,1.70
2018-05-23T13:06:14.337Z,1.60
2018-05-23T13:08:42.825Z,1.90
2018-05-23T13:11:11.186Z,2.07
2018-05-23T13:13:39.506Z,1.80
2018-05-23T13:16:08.751Z,2.40
2018-05-23T13:18:37.052Z,1.87
2018-05-23T13:21:05.367Z,2.20
2018-05-23T13:23:34.453Z,2.37
2018-05-23T13:26:03.551Z,2.43
2018-05-23T13:28:32.493Z,2.00
2018-05-23T13:31:00.899Z,2.40
2018-05-23T13:33:29.264Z,1.73
2018-05-23T13:35:57.550Z,1.57
2018-05-23T13:38:26.509Z,2.10
2018-05-23T13:40:57.197Z,1.60
2018-05-23T13:43:25.505Z,1.90
2018-05-23T13:45:54.663Z,1.63
2018-05-23T13:48:22.950Z,2.00
2018-05-23T13:50:51.706Z,2.33
2018-05-23T13:53:20.041Z,1.40
2018-05-23T13:55:48.933Z,1.70
2018-05-23T13:58:18.023Z,1.90
2018-05-23T14:00:46.341Z,1.70
2018-05-23T14:03:14.653Z,2.17
2018-05-23T14:05:44.308Z,1.67
2018-05-23T14:08:13.441Z,1.93
2018-05-23T14:10:41.762Z,1.80
2018-05-23T14:13:10.055Z,1.87
2018-05-23T14:15:39.101Z,1.67
2018-05-23T14:18:07.493Z,1.70
2018-05-23T14:20:35.826Z,1.60
2018-05-23T14:23:05.846Z,1.60
2018-05-23T14:25:34.932Z,1.70
2018-05-23T14:28:04.455Z,2.63
2018-05-23T14:30:32.954Z,1.60
2018-05-23T14:33:01.263Z,1.63
2018-05-23T14:35:29.965Z,1.40
2018-05-23T14:37:58.685Z,2.20
2018-05-23T14:40:28.382Z,1.43
2018-05-23T14:42:57.542Z,1.67
2018-05-23T14:45:25.938Z,1.80
2018-05-23T14:47:55.094Z,2.17
2018-05-23T14:50:23.476Z,1.57
2018-05-23T14:52:51.937Z,1.43
2018-05-23T14:55:22.325Z,1.63
2018-05-23T14:57:50.718Z,1.40
2018-05-23T15:00:19.058Z,1.83
2018-05-23T15:02:47.344Z,2.17
2018-05-23T15:05:15.661Z,1.80
2018-05-23T15:07:44.757Z,1.67
2018-05-23T15:10:13.825Z,1.93
2018-05-23T15:12:42.429Z,2.13
2018-05-23T15:15:10.804Z,1.87
2018-05-23T15:17:39.369Z,1.70
2018-05-23T15:20:07.715Z,1.90
2018-05-23T15:22:36.526Z,1.80
2018-05-23T15:25:04.934Z,1.90
2018-05-23T15:27:33.235Z,2.00
2018-05-23T15:30:03.142Z,1.73
2018-05-23T15:32:33.013Z,1.90
2018-05-23T15:35:01.500Z,2.20
2018-05-23T15:37:29.721Z,2.50
2018-05-23T15:39:58.887Z,1.83
2018-05-23T15:42:27.308Z,1.40
2018-05-23T15:44:56.362Z,2.30
2018-05-23T15:47:24.684Z,1.80
2018-05-23T15:49:53.747Z,1.60
2018-05-23T15:52:22.265Z,2.27
2018-05-23T15:54:51.430Z,1.80
2018-05-23T15:57:20.074Z,1.67
2018-05-23T15:59:48.374Z,1.53
2018-05-23T16:02:16.675Z,1.60
2018-05-23T16:04:44.970Z,2.07
2018-05-23T16:07:14.056Z,2.43
2018-05-23T16:09:42.401Z,1.47
2018-05-23T16:12:10.689Z,1.50
2018-05-23T16:14:39.245Z,1.60
2018-05-23T16:17:07.558Z,2.00
2018-05-23T16:19:36.656Z,1.60
2018-05-23T16:22:05.063Z,1.73
2018-05-23T16:24:33.419Z,1.50
2018-05-23T16:27:01.723Z,1.90
2018-05-23T16:29:31.043Z,1.60
2018-05-23T16:32:00.615Z,1.60
2018-05-23T16:34:29.597Z,1.80
2018-05-23T16:36:58.202Z,1.73
2018-05-23T16:39:27.929Z,1.77
2018-05-23T16:41:57.010Z,1.53
2018-05-23T16:44:25.781Z,1.60
2018-05-23T16:46:54.697Z,1.30
2018-05-23T16:49:23.430Z,1.40
2018-05-23T16:51:51.942Z,1.63
2018-05-23T16:54:20.241Z,1.67
2018-05-23T16:56:48.534Z,1.50
2018-05-23T16:59:17.614Z,1.70
2018-05-23T17:01:45.946Z,1.20
2018-05-23T17:04:14.260Z,1.63
2018-05-23T17:06:43.905Z,1.63
2018-05-23T17:09:13.779Z,1.50
2018-05-23T17:11:42.639Z,1.40
2018-05-23T17:14:11.063Z,1.40
2018-05-23T17:16:39.441Z,1.40
2018-05-23T17:19:07.879Z,2.20
2018-05-23T17:21:36.721Z,1.60
2018-05-23T17:24:05.050Z,1.30
2018-05-23T17:26:33.355Z,1.53
2018-05-23T17:29:01.660Z,1.03
2018-05-23T17:31:33.018Z,1.80
2018-05-23T17:34:02.095Z,1.50
2018-05-23T17:36:30.432Z,1.87
2018-05-23T17:38:58.812Z,1.50
2018-05-23T17:41:27.172Z,1.50
2018-05-23T17:43:56.351Z,1.30
2018-05-23T17:46:26.439Z,1.80
2018-05-23T17:48:55.227Z,1.27
2018-05-23T17:51:25.128Z,1.80
2018-05-23T17:53:53.428Z,1.33
2018-05-23T17:56:22.363Z,2.00
2018-05-23T17:58:50.870Z,1.83
2018-05-23T18:01:20.152Z,1.70
2018-05-23T18:03:49.224Z,1.70
2018-05-23T18:06:17.727Z,1.60
2018-05-23T18:08:46.104Z,2.30
2018-05-23T18:11:15.282Z,1.27
2018-05-23T18:13:43.613Z,2.07
2018-05-23T18:16:11.898Z,1.40
2018-05-23T18:18:40.578Z,1.40
2018-05-23T18:21:10.793Z,1.83
2018-05-23T18:23:39.253Z,1.67
2018-05-23T18:26:07.946Z,1.77
2018-05-23T18:28:36.654Z,1.67
2018-05-23T18:31:05.701Z,1.80
2018-05-23T18:33:33.994Z,1.23
2018-05-23T18:36:03.996Z,1.73
2018-05-23T18:38:32.327Z,1.80
2018-05-23T18:41:00.634Z,1.17
2018-05-23T18:43:30.479Z,1.20
2018-05-23T18:45:59.531Z,1.70
2018-05-23T18:48:27.831Z,1.50
2018-05-23T18:50:57.134Z,1.33
2018-05-23T18:53:26.194Z,1.30
2018-05-23T18:55:54.509Z,1.40
2018-05-23T18:58:22.896Z,1.23
2018-05-23T19:00:51.162Z,1.53
2018-05-23T19:03:19.470Z,1.10
2018-05-23T19:05:48.547Z,1.93
2018-05-23T19:08:16.945Z,1.30
2018-05-23T19:10:46.770Z,1.20
2018-05-23T19:13:15.866Z,1.80
2018-05-23T19:15:44.930Z,1.63
2018-05-23T19:18:15.520Z,1.20
2018-05-23T19:20:44.634Z,1.40
2018-05-23T19:23:12.968Z,1.33
2018-05-23T19:25:42.838Z,1.70
2018-05-23T19:28:11.240Z,1.70
2018-05-23T19:30:40.346Z,1.47
2018-05-23T19:33:09.438Z,1.67
2018-05-23T19:35:37.763Z,1.13
2018-05-23T19:38:06.327Z,1.37
2018-05-23T19:40:36.303Z,1.47
2018-05-23T19:43:04.674Z,1.70
2018-05-23T19:45:32.952Z,1.70
2018-05-23T19:48:01.251Z,1.60
2018-05-23T19:50:30.379Z,1.33
2018-05-23T19:52:59.711Z,1.47
2018-05-23T19:55:28.665Z,1.50
2018-05-23T19:57:57.772Z,1.47
2018-05-23T20:00:26.180Z,1.37
2018-05-23T20:02:54.730Z,1.57
2018-05-23T20:05:25.264Z,1.30
2018-05-23T20:07:53.654Z,1.67
2018-05-23T20:10:22.698Z,1.50
2018-05-23T20:12:51.017Z,1.80
2018-05-23T20:15:19.458Z,1.80
2018-05-23T20:17:49.428Z,1.50
2018-05-23T20:20:17.731Z,1.70
2018-05-23T20:22:46.555Z,1.87
2018-05-23T20:25:16.109Z,1.63
2018-05-23T20:27:44.436Z,1.80
2018-05-23T20:30:14.633Z,1.80
2018-05-23T20:32:43.710Z,2.30
2018-05-23T20:35:11.993Z,2.10
2018-05-23T20:37:40.290Z,1.67
2018-05-23T20:40:08.591Z,1.87
2018-05-23T20:42:38.457Z,1.50
2018-05-23T20:45:07.927Z,1.90
2018-05-23T20:47:37.664Z,2.20
2018-05-23T20:50:06.868Z,2.43
2018-05-23T20:52:35.430Z,1.70
2018-05-23T20:55:04.896Z,1.83
2018-05-23T20:57:33.177Z,1.53
2018-05-23T21:00:01.720Z,1.80
2018-05-23T21:02:30.303Z,2.37
2018-05-23T21:04:58.710Z,1.77
2018-05-23T21:07:26.998Z,1.30
2018-05-23T21:09:55.319Z,2.13
2018-05-23T21:12:24.596Z,2.57
2018-05-23T21:14:52.989Z,1.80
2018-05-23T21:20:57.456Z,1.73
2018-05-23T21:23:27.441Z,2.07
2018-05-23T21:25:55.727Z,1.90
2018-05-23T21:28:24.259Z,1.90
2018-05-23T21:30:52.569Z,1.90
2018-05-23T21:33:20.934Z,1.73
2018-05-23T21:35:49.218Z,1.70
2018-05-23T21:38:17.610Z,1.63
2018-05-23T21:40:46.459Z,1.70
2018-05-23T21:43:14.758Z,1.73
2018-05-23T21:45:43.114Z,1.47
2018-05-23T21:48:11.424Z,1.77
2018-05-23T21:50:40.259Z,2.07
2018-05-23T22:02:11.183Z,2.40
2018-05-23T22:04:41.153Z,2.20
2018-05-23T22:07:09.457Z,2.30
2018-05-23T22:09:38.619Z,1.63
2018-05-23T22:12:07.695Z,1.50
2018-05-23T22:14:36.628Z,1.80
2018-05-23T22:17:04.986Z,1.70
2018-05-23T22:19:33.318Z,1.90
2018-05-23T22:22:01.755Z,2.10
2018-05-23T22:24:30.599Z,2.27
2018-05-23T22:26:58.882Z,1.80
2018-05-23T22:29:27.317Z,2.60
2018-05-23T22:31:55.635Z,1.67
2018-05-23T22:34:25.417Z,1.70
2018-05-23T22:36:55.341Z,1.97
2018-05-23T22:39:24.510Z,2.30
2018-05-23T22:41:53.646Z,2.20
2018-05-23T22:44:22.789Z,1.93
2018-05-23T22:46:51.074Z,1.97
2018-05-23T22:49:19.358Z,1.90
2018-05-23T22:51:47.673Z,3.10
2018-05-23T22:54:17.111Z,1.77
2018-05-23T22:56:45.755Z,2.17
2018-05-23T22:59:14.909Z,2.60
2018-05-23T23:01:43.934Z,2.40
2018-05-23T23:04:13.859Z,1.67
2018-05-23T23:06:42.143Z,2.00
2018-05-23T23:09:11.222Z,2.03
2018-05-23T23:11:39.573Z,1.90
2018-05-23T23:14:09.407Z,2.60
2018-05-23T23:16:37.815Z,2.00
2018-05-23T23:19:06.873Z,2.70
2018-05-23T23:21:36.074Z,2.63
2018-05-23T23:24:04.553Z,2.50
2018-05-23T23:26:32.847Z,2.50
2018-05-23T23:29:01.238Z,2.43
2018-05-23T23:31:29.592Z,2.43
2018-05-23T23:33:58.125Z,2.20
2018-05-23T23:36:28.683Z,2.33
2018-05-23T23:38:58.594Z,2.43
2018-05-23T23:41:27.688Z,2.90
2018-05-23T23:43:56.207Z,2.90
2018-05-23T23:46:25.285Z,3.00
2018-05-23T23:48:53.603Z,2.80
2018-05-23T23:51:22.835Z,2.87
2018-05-23T23:53:52.696Z,2.70
2018-05-23T23:56:20.982Z,3.00
2018-05-23T23:58:50.185Z,3.10
